createdAt,value
2022-10-25T06:15:12.341Z,66.79
2022-10-25T06:17:40.288Z,66.70
2022-10-25T06:20:09.475Z,66.72
2022-10-25T06:22:38.426Z,66.72
2022-10-25T06:25:07.563Z,66.61
2022-10-25T06:27:35.619Z,66.86
2022-10-25T06:30:04.124Z,66.97
2022-10-25T06:32:33.658Z,66.63
2022-10-25T06:35:01.623Z,66.77
2022-10-25T06:37:30.314Z,66.26
2022-10-25T06:39:58.295Z,66.46
2022-10-25T06:42:26.528Z,66.27
2022-10-25T06:44:58.606Z,66.42
2022-10-25T06:47:29.327Z,66.02
2022-10-25T06:50:00.718Z,66.43
2022-10-25T06:52:35.791Z,66.07
2022-10-25T06:55:06.437Z,66.08
2022-10-25T06:57:37.023Z,66.27
2022-10-25T07:00:05.709Z,66.59
2022-10-25T07:02:33.660Z,68.29
2022-10-25T07:05:03.280Z,67.66
2022-10-25T07:07:31.094Z,67.31
2022-10-25T07:09:58.862Z,67.50
2022-10-25T07:12:26.934Z,67.61
2022-10-25T07:14:54.898Z,66.79
2022-10-25T07:17:22.745Z,67.14
2022-10-25T07:19:50.796Z,67.14
2022-10-25T07:22:21.501Z,66.89
2022-10-25T07:24:49.832Z,66.54
2022-10-25T07:27:18.244Z,65.99
2022-10-25T07:29:46.212Z,66.03
2022-10-25T07:32:14.341Z,66.12
2022-10-25T07:34:42.416Z,66.69
2022-10-25T07:37:10.591Z,66.23
2022-10-25T07:39:39.914Z,66.00
2022-10-25T07:42:07.851Z,66.97
2022-10-25T07:44:35.940Z,65.64
2022-10-25T07:47:03.724Z,66.07
2022-10-25T07:49:32.219Z,65.45
2022-10-25T07:52:00.454Z,65.96
2022-10-25T07:54:28.531Z,66.66
2022-10-25T07:56:58.699Z,65.83
2022-10-25T07:59:26.703Z,66.31
2022-10-25T08:01:55.477Z,66.07
2022-10-25T08:04:24.951Z,65.58
2022-10-25T08:06:52.975Z,65.74
2022-10-25T08:09:37.302Z,66.61
2022-10-25T08:12:09.323Z,65.22
2022-10-25T08:14:40.693Z,65.15
2022-10-25T08:17:10.569Z,65.39
2022-10-25T08:19:39.301Z,65.57
2022-10-25T08:22:08.410Z,67.04
2022-10-25T08:24:38.804Z,66.04
2022-10-25T08:27:08.941Z,65.71
2022-10-25T08:29:37.061Z,65.42
2022-10-25T08:32:05.273Z,66.07
2022-10-25T08:34:33.984Z,66.06
2022-10-25T08:37:02.040Z,65.83
2022-10-25T08:39:32.850Z,66.22
2022-10-25T08:42:03.667Z,65.70
2022-10-25T08:44:47.695Z,65.42
2022-10-25T08:47:21.244Z,64.99
2022-10-25T08:49:56.000Z,65.25
2022-10-25T08:52:30.787Z,64.82
2022-10-25T08:55:04.770Z,66.07
2022-10-25T08:57:40.770Z,64.25
2022-10-25T09:00:18.098Z,65.27
2022-10-25T09:02:51.728Z,64.73
2022-10-25T09:05:35.741Z,64.98
2022-10-25T09:08:17.265Z,63.85
2022-10-25T09:10:52.582Z,62.91
2022-10-25T09:13:36.341Z,63.85
2022-10-25T09:16:16.283Z,62.13
2022-10-25T09:18:50.443Z,62.61
2022-10-25T09:21:26.863Z,62.93
2022-10-25T09:24:01.516Z,62.67
2022-10-25T09:26:48.531Z,63.12
2022-10-25T09:29:24.630Z,63.20
2022-10-25T09:31:59.367Z,62.62
2022-10-25T09:34:33.087Z,62.41
2022-10-25T09:37:08.749Z,62.03
2022-10-25T09:39:40.408Z,61.50
2022-10-25T09:42:18.649Z,63.37
2022-10-25T09:44:56.763Z,62.88
2022-10-25T09:47:39.192Z,62.16
2022-10-25T09:50:13.846Z,63.19
2022-10-25T09:52:48.314Z,62.16
2022-10-25T09:55:32.614Z,61.89
2022-10-25T09:58:01.538Z,61.83
2022-10-25T10:00:29.574Z,63.31
2022-10-25T10:03:02.202Z,62.56
2022-10-25T10:05:31.845Z,62.89
2022-10-25T10:08:00.279Z,62.56
2022-10-25T10:10:34.630Z,61.48
2022-10-25T10:13:07.854Z,61.46
2022-10-25T10:15:44.064Z,62.51
2022-10-25T10:18:25.395Z,63.86
2022-10-25T10:21:07.455Z,62.99
2022-10-25T10:23:45.550Z,61.47
2022-10-25T10:26:24.627Z,61.27
2022-10-25T10:29:04.191Z,61.31
2022-10-25T10:31:42.966Z,61.03
2022-10-25T10:34:30.174Z,60.93
2022-10-25T10:37:18.727Z,61.08
2022-10-25T10:39:55.452Z,61.10
2022-10-25T10:42:35.620Z,60.77
2022-10-25T10:45:16.450Z,60.74
2022-10-25T10:47:47.405Z,60.53
2022-10-25T10:56:25.935Z,60.69
2022-10-25T10:58:54.387Z,59.47
2022-10-25T11:01:33.870Z,58.97
2022-10-25T11:04:03.906Z,59.16
2022-10-25T11:06:35.882Z,59.55
2022-10-25T11:09:17.539Z,59.56
2022-10-25T11:11:47.130Z,59.71
2022-10-25T11:14:17.662Z,59.39
2022-10-25T11:17:04.107Z,59.81
2022-10-25T11:19:48.206Z,59.25
2022-10-25T11:22:33.387Z,59.58
2022-10-25T11:25:21.489Z,59.33
2022-10-25T11:28:08.481Z,58.85
2022-10-25T11:30:42.569Z,58.69
2022-10-25T11:33:35.256Z,59.37
2022-10-25T11:36:18.655Z,58.97
2022-10-25T11:39:03.353Z,58.82
2022-10-25T11:41:44.957Z,58.06
2022-10-25T11:44:33.363Z,58.61
2022-10-25T11:47:11.355Z,58.66
2022-10-25T11:49:56.815Z,59.23
2022-10-25T11:52:32.660Z,59.30
2022-10-25T11:55:10.919Z,59.40
2022-10-25T11:57:48.480Z,59.10
2022-10-25T12:00:18.855Z,58.20
2022-10-25T12:03:09.874Z,58.22
2022-10-25T12:05:48.010Z,57.75
2022-10-25T12:08:27.353Z,58.53
2022-10-25T12:11:03.745Z,56.66
2022-10-25T12:13:34.928Z,57.39
2022-10-25T12:16:06.533Z,57.38
2022-10-25T12:18:39.594Z,56.84
2022-10-25T12:21:10.485Z,57.24
2022-10-25T12:23:44.383Z,57.43
2022-10-25T12:26:26.835Z,57.16
2022-10-25T12:28:55.415Z,56.97
2022-10-25T12:31:26.756Z,57.33
2022-10-25T12:34:00.144Z,56.72
2022-10-25T12:36:33.259Z,56.00
2022-10-25T12:39:05.183Z,55.41
2022-10-25T12:41:39.386Z,55.61
2022-10-25T12:44:18.605Z,56.05
2022-10-25T12:47:13.574Z,56.34
2022-10-25T12:50:00.797Z,56.25
2022-10-25T12:52:36.004Z,55.98
2022-10-25T12:55:37.094Z,56.07
2022-10-25T12:58:22.473Z,56.08
2022-10-25T13:01:07.728Z,56.27
2022-10-25T13:03:55.039Z,57.38
2022-10-25T13:06:31.344Z,55.00
2022-10-25T13:09:06.005Z,55.24
2022-10-25T13:11:36.796Z,56.45
2022-10-25T13:14:14.131Z,55.34
2022-10-25T13:16:42.155Z,55.46
2022-10-25T13:22:39.427Z,55.65
2022-10-25T13:25:19.085Z,55.54
2022-10-25T13:28:20.003Z,54.99
2022-10-25T13:30:49.595Z,54.78
2022-10-25T13:33:36.656Z,55.31
2022-10-25T13:36:07.125Z,55.77
2022-10-25T13:38:41.944Z,55.09
2022-10-25T13:41:15.470Z,54.99
2022-10-25T13:44:03.969Z,54.39
2022-10-25T13:46:36.669Z,53.88
2022-10-25T13:49:23.579Z,54.77
2022-10-25T13:51:54.830Z,54.45
2022-10-25T13:54:23.628Z,53.41
2022-10-25T13:56:53.646Z,53.35
2022-10-25T13:59:38.252Z,53.81
2022-10-25T14:02:18.632Z,53.45
2022-10-25T14:04:47.037Z,55.17
2022-10-25T14:07:47.934Z,55.48
2022-10-25T14:10:24.310Z,53.47
2022-10-25T14:12:55.325Z,53.97
2022-10-25T14:15:45.935Z,53.94
2022-10-25T14:18:21.164Z,54.33
2022-10-25T14:20:52.655Z,54.71
2022-10-25T14:23:26.392Z,54.24
2022-10-25T14:25:58.072Z,55.10
2022-10-25T14:28:28.205Z,54.70
2022-10-25T14:30:58.259Z,55.55
2022-10-25T14:33:35.511Z,54.44
2022-10-25T14:36:10.965Z,55.11
2022-10-25T14:38:51.686Z,55.58
2022-10-25T14:41:23.619Z,54.61
2022-10-25T14:43:52.094Z,55.75
2022-10-25T14:46:21.604Z,55.22
2022-10-25T14:48:56.263Z,55.76
2022-10-25T14:51:30.389Z,54.67
2022-10-25T14:54:02.367Z,53.97
2022-10-25T14:56:33.573Z,54.09
2022-10-25T14:59:03.901Z,54.86
2022-10-25T15:01:32.031Z,53.83
2022-10-25T15:04:02.487Z,54.24
2022-10-25T15:06:33.671Z,55.28
2022-10-25T15:09:40.748Z,53.99
2022-10-25T15:12:08.610Z,54.07
2022-10-25T15:14:37.459Z,53.32
2022-10-25T15:17:06.674Z,53.88
2022-10-25T15:20:00.775Z,54.07
2022-10-25T15:22:31.032Z,53.79
2022-10-25T15:24:59.022Z,55.05
2022-10-25T15:27:33.456Z,53.51
2022-10-25T15:30:01.717Z,53.54
2022-10-25T15:32:30.288Z,54.15
2022-10-25T15:35:02.804Z,54.08
2022-10-25T15:37:32.979Z,54.08
2022-10-25T15:40:01.205Z,53.54
2022-10-25T15:42:30.951Z,53.62
2022-10-25T15:44:59.898Z,53.64
2022-10-25T15:47:44.355Z,53.74
2022-10-25T15:50:20.841Z,53.76
2022-10-25T15:52:50.266Z,53.77
2022-10-25T15:55:24.357Z,53.89
2022-10-25T15:57:54.537Z,54.29
2022-10-25T16:00:29.640Z,54.13
2022-10-25T16:02:59.531Z,54.18
2022-10-25T16:05:36.158Z,54.30
2022-10-25T16:08:08.716Z,54.29
2022-10-25T16:10:38.975Z,54.53
2022-10-25T16:13:18.520Z,54.73
2022-10-25T16:15:47.295Z,54.74
2022-10-25T16:18:19.134Z,54.61
2022-10-25T16:21:00.148Z,55.06
2022-10-25T16:23:31.325Z,55.03
2022-10-25T16:26:00.206Z,55.34
2022-10-25T16:28:29.716Z,55.59
2022-10-25T16:30:58.139Z,55.88
2022-10-25T16:33:26.151Z,55.97
2022-10-25T16:36:06.114Z,56.01
2022-10-25T16:38:34.959Z,56.16
2022-10-25T16:41:07.740Z,56.50
2022-10-25T16:46:39.356Z,56.71
2022-10-25T16:49:22.115Z,56.97
2022-10-25T16:52:00.856Z,56.87
2022-10-25T16:54:38.987Z,56.86
2022-10-25T16:57:12.221Z,56.83
2022-10-25T16:59:50.043Z,56.85
2022-10-25T17:02:30.597Z,56.94
2022-10-25T18:21:19.021Z,58.71
2022-10-25T18:23:57.506Z,58.93
2022-10-25T18:26:37.569Z,59.15
2022-10-25T18:29:20.775Z,58.93
2022-10-25T18:31:54.316Z,59.23
2022-10-25T18:34:28.144Z,58.98
2022-10-25T18:37:06.254Z,59.04
2022-10-25T18:39:51.462Z,59.18
2022-10-25T18:42:41.229Z,59.35
2022-10-25T18:45:14.156Z,59.41
2022-10-25T18:47:48.649Z,59.52
2022-10-25T18:50:30.459Z,59.35
2022-10-25T18:53:07.477Z,59.67
2022-10-25T18:55:53.004Z,59.61
2022-10-25T18:58:23.363Z,59.72
2022-10-25T19:01:08.132Z,59.80
2022-10-25T19:03:47.784Z,59.70
2022-10-25T19:06:20.469Z,59.85
2022-10-25T19:08:57.297Z,59.72
2022-10-25T19:11:29.929Z,59.72
2022-10-25T19:14:05.285Z,59.85
2022-10-25T19:16:44.981Z,59.36
2022-10-25T19:19:32.345Z,59.89
2022-10-25T19:22:16.728Z,60.06
2022-10-25T19:24:54.225Z,60.10
2022-10-25T19:27:26.391Z,60.07
2022-10-25T19:30:05.304Z,60.48
2022-10-25T19:32:48.938Z,60.48
2022-10-25T19:35:33.333Z,59.97
2022-10-25T19:38:14.183Z,60.59
2022-10-25T19:40:58.618Z,60.63
